Latest Weather Observations for Ngukurr AWS

IDD60801

Issued at 3:31 pm CST Friday 29 April 2016 (issued every 30 minutes, with the page automatically refreshed every 10 minutes)

About weather observations | Map of weather stations | Latest weather observations for NT | Other Formats
Station Details ID: 014299 Name: NGUKURR AIRPORT Lat: -14.72 Lon: 134.75 Height: 14.46 m
Data from the previous 72 hours. | See also: Recent months at Ngukurr AWS
Date/Time
CST
Temp
°C
App
Temp
°C
Dew
Point
Rel
Hum
%
Delta-T
°C
Wind Press
QNH
hPa
Press
MSL
hPa
Rain
since 9 am
mm
Dir
 
Spd
km/h
Gust
km/h
Spd
kts
Gust
kts
29/03:30pm 34.1 34.0 16.9 36 11.0 ESE 13 20 7 11 1009.6 1009.5 0.0
29/03:00pm 33.6 34.9 18.5 40 9.8 ESE 9 17 5 9 1010.0 1009.9 0.0
29/02:30pm 33.5 33.8 18.0 39 10.0 E 13 19 7 10 1010.3 1010.2 0.0
29/02:00pm 33.5 34.2 19.6 44 9.2 ENE 15 22 8 12 1010.4 1010.3 0.0
29/01:30pm 32.8 34.5 19.3 45 8.9 NNE 9 15 5 8 1010.5 1010.4 0.0
29/01:00pm 33.8 35.6 18.7 40 9.9 ESE 7 11 4 6 1010.8 1010.7 0.0
29/12:30pm 33.4 34.6 18.3 40 9.8 ENE 9 15 5 8 1011.4 1011.3 0.0
29/12:00pm 34.8 37.6 19.6 40 10.1 ESE 4 11 2 6 1011.8 1011.7 0.0
29/11:30am 34.7 37.0 19.9 42 9.9 ESE 7 15 4 8 1012.4 1012.3 0.0
29/11:00am 33.9 36.6 20.3 45 9.1 NNE 6 13 3 7 1012.9 1012.8 0.0
29/10:30am 32.8 35.5 20.7 49 8.1 ENE 7 11 4 6 1013.3 1013.2 0.0
29/10:00am 31.9 35.0 21.1 52 7.3 NE 6 11 3 6 1013.6 1013.5 0.0
29/09:30am 31.5 35.7 22.5 59 6.1 NNE 4 9 2 5 1013.4 1013.3 0.0
29/09:00am 30.0 34.3 22.7 65 5.0 NNW 4 9 2 5 1013.3 1013.2 0.0
29/08:30am 29.1 34.2 23.3 71 4.0 NNE 2 6 1 3 1013.2 1013.1 0.0
29/08:00am 28.4 33.8 23.3 74 3.5 CALM 0 0 0 0 1013.0 1012.9 0.0
29/07:30am 26.6 32.0 23.3 82 2.3 CALM 0 0 0 0 1012.8 1012.7 0.0
29/07:00am 25.8 30.9 22.7 83 2.1 CALM 0 0 0 0 1012.5 1012.4 0.0
29/06:30am 26.0 31.1 22.7 82 2.2 CALM 0 0 0 0 1012.3 1012.2 0.0
29/06:00am 26.3 31.4 22.6 80 2.5 CALM 0 0 0 0 1011.8 1011.7 0.0
29/05:30am 26.9 31.9 22.5 77 3.0 CALM 0 0 0 0 1011.7 1011.6 0.0
29/05:00am 27.2 32.0 22.8 77 3.0 WSW 2 2 1 1 1011.6 1011.5 0.0
29/04:30am 27.4 31.9 23.0 77 3.0 W 4 6 2 3 1011.5 1011.4 0.0
29/04:00am 27.5 32.3 22.9 76 3.1 NW 2 4 1 2 1011.5 1011.4 0.0
29/03:30am 27.6 32.5 23.0 76 3.1 NE 2 4 1 2 1011.3 1011.2 0.0
29/03:00am 27.6 31.6 22.8 75 3.3 ENE 6 7 3 4 1011.2 1011.1 0.0
29/02:30am 27.7 31.6 22.6 74 3.5 ENE 6 7 3 4 1011.3 1011.2 0.0
29/02:00am 27.6 32.1 22.3 73 3.6 NE 2 4 1 2 1011.5 1011.4 0.0
29/01:30am 27.8 31.4 22.1 71 3.8 ENE 6 7 3 4 1011.6 1011.5 0.0
29/01:00am 28.3 32.2 22.5 71 3.9 ENE 6 9 3 5 1011.9 1011.8 0.0
29/12:30am 28.5 32.4 23.0 72 3.8 ENE 7 9 4 5 1012.2 1012.1 0.0
29/12:00am 28.8 33.0 23.2 71 3.8 ENE 6 9 3 5 1012.4 1012.3 0.0
 
Date/Time
CST
Temp
°C
App
Temp
°C
Dew
Point
Rel
Hum
%
Delta-T
°C
Wind Press
QNH
hPa
Press
MSL
hPa
Rain
since 9 am
mm
Dir
 
Spd
km/h
Gust
km/h
Spd
kts
Gust
kts
28/11:30pm 29.1 32.9 23.5 72 3.9 E 9 13 5 7 1012.6 1012.5 0.0
28/11:00pm 29.2 33.1 23.6 72 3.9 E 9 15 5 8 1012.6 1012.5 0.0
28/10:30pm 29.3 32.4 23.5 71 4.0 E 13 19 7 10 1012.6 1012.5 0.0
28/10:00pm 29.4 32.4 23.4 70 4.1 ENE 13 17 7 9 1012.4 1012.3 0.0
28/09:30pm 29.6 32.6 23.3 69 4.3 E 13 19 7 10 1012.4 1012.3 0.0
28/09:00pm 29.7 32.8 22.9 67 4.7 E 11 15 6 8 1012.2 1012.1 0.0
28/08:30pm 29.9 32.6 22.9 66 4.8 E 13 19 7 10 1011.8 1011.7 0.0
28/08:00pm 30.1 32.6 22.5 63 5.2 E 13 19 7 10 1011.5 1011.4 0.0
28/07:30pm 30.3 32.1 22.5 63 5.3 E 17 24 9 13 1011.0 1010.9 0.0
28/07:00pm 30.8 32.7 21.3 57 6.4 E 13 22 7 12 1010.5 1010.4 0.0
28/06:30pm 31.0 32.4 20.3 53 7.1 E 13 20 7 11 1010.0 1009.9 0.0
28/06:00pm 31.6 31.7 19.9 50 7.7 E 19 24 10 13 1009.7 1009.6 0.0
28/05:30pm 32.1 32.1 19.0 45 8.6 E 17 24 9 13 1009.4 1009.3 0.0
28/05:00pm 32.0 32.4 20.6 51 7.6 E 19 28 10 15 1009.1 1009.0 0.0
28/04:30pm 32.7 31.8 17.7 40 9.6 ESE 19 26 10 14 1008.9 1008.8 0.0
28/04:00pm 34.2 33.9 19.1 41 9.9 E 19 30 10 16 1008.7 1008.6 0.0
28/03:30pm 33.9 33.9 18.0 39 10.3 E 15 22 8 12 1008.6 1008.5 0.0
28/03:00pm 34.5 35.4 18.5 38 10.5 ESE 11 20 6 11 1008.6 1008.5 0.0
28/02:30pm 34.2 34.1 17.8 37 10.6 E 15 24 8 13 1008.9 1008.8 0.0
28/02:00pm 35.0 33.9 17.7 36 11.2 E 20 30 11 16 1009.2 1009.1 0.0
28/01:30pm 35.2 35.1 17.0 34 11.7 ESE 13 22 7 12 1009.5 1009.4 0.0
28/01:00pm 33.9 33.9 17.2 37 10.7 E 13 22 7 12 1010.0 1009.9 0.0
28/12:30pm 33.4 33.7 17.1 37 10.4 SE 11 19 6 10 1010.5 1010.4 0.0
28/12:00pm 34.3 35.4 17.9 37 10.6 E 9 17 5 9 1011.0 1010.9 0.0
28/11:30am 33.2 33.7 17.4 39 10.1 E 11 20 6 11 1011.4 1011.3 0.0
28/11:00am 32.5 34.3 18.7 44 9.0 SE 7 13 4 7 1011.9 1011.8 0.0
28/10:30am 32.0 33.1 18.9 45 8.5 E 11 20 6 11 1012.2 1012.1 0.0
28/10:00am 31.9 34.3 20.8 51 7.4 ESE 9 15 5 8 1012.2 1012.1 0.0
28/09:30am 31.1 33.9 21.6 57 6.4 SE 9 15 5 8 1012.3 1012.2 0.0
28/09:00am 29.7 33.2 21.9 63 5.3 SE 6 11 3 6 1012.1 1012.0 0.0
28/08:30am 29.0 33.6 22.5 68 4.4 E 2 6 1 3 1011.7 1011.6 0.0
28/08:00am 27.6 31.8 22.5 74 3.5 ESE 4 6 2 3 1011.6 1011.5 0.0
28/07:30am 26.1 31.3 22.8 82 2.2 CALM 0 0 0 0 1011.5 1011.4 0.0
28/07:00am 24.4 28.8 22.8 91 1.1 SE 4 4 2 2 1011.1 1011.0 0.0
28/06:30am 24.2 29.2 22.5 90 1.1 CALM 0 0 0 0 1011.0 1010.9 0.0
28/06:00am 24.9 29.5 22.4 86 1.7 SSE 2 4 1 2 1010.6 1010.5 0.0
28/05:30am 25.2 29.4 22.5 85 1.8 SSE 4 6 2 3 1010.4 1010.3 0.0
28/05:00am 25.6 29.6 22.7 84 2.0 SSE 6 7 3 4 1010.2 1010.1 0.0
28/04:30am 26.2 30.6 22.1 78 2.8 SE 2 4 1 2 1010.1 1010.0 0.0
28/04:00am 26.9 31.1 22.5 77 3.0 ENE 4 6 2 3 1010.1 1010.0 0.0
28/03:30am 27.3 31.2 22.5 75 3.2 ENE 6 7 3 4 1010.1 1010.0 0.0
28/03:00am 27.7 31.5 22.4 73 3.6 ENE 6 9 3 5 1010.2 1010.1 0.0
28/02:30am 28.1 31.8 22.6 72 3.7 ENE 7 9 4 5 1010.5 1010.4 0.0
28/02:00am 28.3 31.1 22.3 70 4.1 ENE 11 15 6 8 1010.6 1010.5 0.0
28/01:30am 28.6 31.8 22.3 68 4.3 ENE 9 15 5 8 1010.8 1010.7 0.0
28/01:00am 28.7 32.2 22.2 68 4.4 ENE 7 11 4 6 1011.0 1010.9 0.0
28/12:30am 28.8 32.0 22.3 68 4.4 ENE 9 13 5 7 1011.1 1011.0 0.0
28/12:00am 28.9 32.1 22.4 68 4.4 E 9 15 5 8 1011.2 1011.1 0.0
 
Date/Time
CST
Temp
°C
App
Temp
°C
Dew
Point
Rel
Hum
%
Delta-T
°C
Wind Press
QNH
hPa
Press
MSL
hPa
Rain
since 9 am
mm
Dir
 
Spd
km/h
Gust
km/h
Spd
kts
Gust
kts
27/11:30pm 29.0 31.7 22.2 66 4.6 E 11 17 6 9 1011.4 1011.3 0.0
27/11:00pm 29.0 31.7 22.2 66 4.6 ENE 11 17 6 9 1011.5 1011.4 0.0
27/10:30pm 29.1 32.3 22.3 66 4.6 E 9 15 5 8 1011.5 1011.4 0.0
27/10:00pm 29.1 31.9 22.3 66 4.6 E 11 15 6 8 1011.6 1011.5 0.0
27/09:30pm 29.2 32.4 22.4 66 4.6 ENE 9 13 5 7 1011.6 1011.5 0.0
27/09:00pm 29.3 32.1 22.3 66 4.7 E 11 17 6 9 1011.5 1011.4 0.0
27/08:30pm 29.5 31.9 22.2 65 4.9 E 13 20 7 11 1011.2 1011.1 0.0
27/08:00pm 29.8 31.3 22.0 63 5.3 E 17 24 9 13 1010.9 1010.8 0.0
27/07:30pm 30.5 32.3 20.4 54 6.7 E 11 20 6 11 1010.5 1010.4 0.0
27/07:00pm 30.9 31.4 19.3 50 7.6 E 15 20 8 11 1010.2 1010.1 0.0
27/06:30pm 31.4 31.0 18.0 44 8.6 E 17 22 9 12 1009.9 1009.8 0.0
27/06:00pm 32.3 31.9 16.2 38 10.1 ESE 13 19 7 10 1009.6 1009.5 0.0
27/05:30pm 32.6 32.4 16.8 38 10.0 ESE 13 20 7 11 1009.3 1009.2 0.0
27/05:00pm 33.0 32.5 15.9 35 10.7 SE 13 19 7 10 1009.1 1009.0 0.0
27/04:30pm 33.9 32.4 16.3 35 11.1 ESE 19 28 10 15 1008.8 1008.7 0.0
27/04:00pm 35.2 35.1 16.0 31 12.1 E 11 20 6 11 1008.6 1008.5 0.0
27/03:30pm 35.3 34.5 14.0 28 13.1 SE 11 22 6 12 1008.6 1008.5 0.0
27/03:00pm 34.8 34.0 15.2 31 12.3 SE 13 22 7 12 1008.8 1008.7 0.0
27/02:30pm 34.9 34.2 15.3 31 12.3 SSE 13 24 7 13 1009.0 1008.9 0.0
27/02:00pm 34.2 33.0 15.1 31 11.9 ESE 15 22 8 12 1009.5 1009.4 0.0
27/01:30pm 33.8 33.0 16.2 35 11.1 E 15 22 8 12 1010.0 1009.9 0.0
27/01:00pm 35.6 34.9 15.3 29 12.7 ESE 13 24 7 13 1010.2 1010.1 0.0
27/12:30pm 35.6 34.9 15.3 29 12.7 ENE 13 20 7 11 1010.8 1010.7 0.0
27/12:00pm 35.2 34.9 16.5 33 11.9 E 13 22 7 12 1011.2 1011.1 0.0
27/11:30am 34.0 34.0 18.1 39 10.3 ESE 15 22 8 12 1011.7 1011.6 0.0
27/11:00am 33.8 32.8 16.6 35 10.9 ESE 17 30 9 16 1012.1 1012.0 0.0
27/10:30am 33.1 31.7 16.5 37 10.5 E 19 30 10 16 1012.5 1012.4 0.0
27/10:00am 32.2 33.9 20.1 48 8.0 ESE 11 20 6 11 1012.6 1012.5 0.0
27/09:30am 31.6 33.4 21.2 54 7.0 ESE 13 20 7 11 1012.6 1012.5 0.0
27/09:00am 29.9 32.4 21.8 62 5.5 ESE 11 19 6 10 1012.6 1012.5 0.0
27/08:30am 28.3 31.6 22.5 71 3.9 ESE 9 13 5 7 1012.5 1012.4 0.0
27/08:00am 27.0 30.7 22.6 77 3.0 SE 7 9 4 5 1012.5 1012.4 0.0
27/07:30am 24.9 29.6 22.6 87 1.5 SSE 2 4 1 2 1012.4 1012.3 0.0
27/07:00am 23.2 28.4 22.9 98 0.2 CALM 0 0 0 0 1012.1 1012.0 0.0
27/06:30am 23.1 27.8 22.6 97 0.3 E 2 2 1 1 1012.1 1012.0 0.0
27/06:00am 23.4 27.9 22.2 93 0.8 SE 2 2 1 1 1011.7 1011.6 0.0
27/05:30am 24.0 28.4 22.8 93 0.8 ESE 4 6 2 3 1011.6 1011.5 0.0
27/05:00am 23.6 28.3 22.0 91 1.1 CALM 0 0 0 0 1011.4 1011.3 0.0
27/04:30am 23.8 28.6 22.1 90 1.1 CALM 0 0 0 0 1011.3 1011.2 0.0
27/04:00am 24.1 28.9 22.2 89 1.3 CALM 0 0 0 0 1011.3 1011.2 0.0
27/03:30am 24.1 28.8 22.0 88 1.4 CALM 0 0 0 0 1011.4 1011.3 0.0
27/03:00am 24.6 29.3 21.9 85 1.8 CALM 0 0 0 0 1011.4 1011.3 0.0
27/02:30am 25.0 29.0 22.1 84 1.9 SSW 4 4 2 2 1011.6 1011.5 0.0
27/02:00am 25.4 29.8 22.1 82 2.2 SSE 2 4 1 2 1011.7 1011.6 0.0
27/01:30am 25.7 30.3 21.8 79 2.6 CALM 0 0 0 0 1011.8 1011.7 0.0
27/01:00am 26.9 31.3 22.1 75 3.2 ENE 2 4 1 2 1011.9 1011.8 0.0
27/12:30am 27.3 31.4 22.3 74 3.4 ENE 4 6 2 3 1012.2 1012.1 0.0
27/12:00am 27.6 31.7 22.3 73 3.6 ENE 4 6 2 3 1012.4 1012.3 0.0
 
Date/Time
CST
Temp
°C
App
Temp
°C
Dew
Point
Rel
Hum
%
Delta-T
°C
Wind Press
QNH
hPa
Press
MSL
hPa
Rain
since 9 am
mm
Dir
 
Spd
km/h
Gust
km/h
Spd
kts
Gust
kts
26/11:30pm 28.0 31.9 22.5 72 3.7 E 6 7 3 4 1012.3 1012.2 0.0
26/11:00pm 28.2 32.0 22.4 71 3.9 ENE 6 9 3 5 1012.3 1012.2 0.0
26/10:30pm 28.5 31.7 22.3 69 4.2 E 9 13 5 7 1012.3 1012.2 0.0
26/10:00pm 28.8 31.6 22.3 68 4.4 E 11 17 6 9 1012.1 1012.0 0.0
26/09:30pm 28.9 31.8 22.4 68 4.4 E 11 17 6 9 1012.2 1012.1 0.0
26/09:00pm 29.2 31.7 22.4 66 4.6 E 13 17 7 9 1012.2 1012.1 0.0
26/08:30pm 29.4 32.4 22.6 67 4.6 ENE 11 15 6 8 1012.1 1012.0 0.0
26/08:00pm 29.6 31.8 22.6 66 4.8 E 15 22 8 12 1011.6 1011.5 0.0
26/07:30pm 29.9 31.9 22.3 63 5.2 E 15 20 8 11 1011.3 1011.2 0.0
26/07:00pm 30.2 32.3 22.4 63 5.3 E 15 24 8 13 1011.0 1010.9 0.0
26/06:30pm 30.6 31.5 21.9 59 5.9 E 20 28 11 15 1010.7 1010.6 0.0
26/06:00pm 31.7 32.5 20.6 51 7.4 E 17 26 9 14 1010.4 1010.3 0.0
26/05:30pm 32.6 31.9 19.5 46 8.6 ENE 22 32 12 17 1010.0 1009.9 0.0
26/05:00pm 34.1 32.8 16.9 36 11.0 E 19 32 10 17 1009.6 1009.5 0.0
26/04:30pm 34.8 33.2 16.1 32 11.8 E 19 28 10 15 1009.4 1009.3 0.0
26/04:00pm 35.2 33.4 15.5 30 12.4 E 19 35 10 19 1009.4 1009.3 0.0

Other Formats:

Comma delimited format used in spreadsheet applications
http://www.bom.gov.au/fwo/IDD60801/IDD60801.94106.axf

JavaScript Object Notation format (JSON) in row-major order
http://www.bom.gov.au/fwo/IDD60801/IDD60801.94106.json